createdAt,value
2023-02-09T00:00:17.541Z,97950.91
2023-02-09T00:02:45.240Z,97906.91
2023-02-09T00:05:12.141Z,97914.34
2023-02-09T02:06:13.357Z,97870.66
2023-02-09T02:08:45.555Z,97860.72
2023-02-09T02:11:12.679Z,97837.81
2023-02-09T02:13:39.305Z,97861.66
2023-02-09T02:16:35.233Z,97855.91
2023-02-09T02:19:08.991Z,97842.50
2023-02-09T02:22:13.144Z,97850.16
2023-02-09T02:25:13.025Z,97850.94
2023-02-09T02:27:55.971Z,97847.22
2023-02-09T02:30:43.536Z,97848.38
2023-02-09T02:33:19.468Z,97840.28
2023-02-09T02:36:01.106Z,97805.28
2023-02-09T02:38:36.685Z,97805.91
2023-02-09T02:41:52.132Z,97827.03
2023-02-09T02:44:19.654Z,97831.69
2023-02-09T02:46:51.822Z,97811.25
2023-02-09T02:49:37.366Z,97818.13
2023-02-09T02:52:08.221Z,97812.59
2023-02-09T02:54:39.925Z,97789.19
2023-02-09T02:57:14.059Z,97835.41
2023-02-09T03:00:04.008Z,97753.53
2023-02-09T03:02:35.000Z,97791.53
2023-02-09T03:05:05.200Z,97824.75
2023-02-09T03:07:32.938Z,97826.31
2023-02-09T03:10:01.469Z,97785.59
2023-02-09T03:13:08.562Z,97829.13
2023-02-09T03:15:42.443Z,97826.56
2023-02-09T03:18:21.414Z,97791.53
2023-02-09T03:21:08.854Z,97833.13
2023-02-09T03:23:41.993Z,97825.28
2023-02-09T03:26:14.358Z,97807.94
2023-02-09T03:28:44.468Z,97816.88
2023-02-09T03:31:11.519Z,97823.06
2023-02-09T03:33:39.471Z,97777.72
2023-02-09T03:36:15.138Z,97829.16
2023-02-09T03:38:41.971Z,97789.75
2023-02-09T03:41:08.833Z,97783.81
2023-02-09T03:43:54.025Z,97788.31
2023-02-09T03:46:20.966Z,97805.25
2023-02-09T03:48:47.935Z,97798.38
2023-02-09T03:51:14.535Z,97803.69
2023-02-09T03:53:41.110Z,97808.81
2023-02-09T03:56:10.565Z,97743.66
2023-02-09T03:58:37.269Z,97792.38
2023-02-09T04:01:05.976Z,97811.53
2023-02-09T04:03:32.704Z,97820.97
2023-02-09T04:05:59.886Z,97817.91
2023-02-09T04:08:29.707Z,97817.91
2023-02-09T04:10:57.777Z,97809.31
2023-02-09T04:13:24.829Z,97815.69
2023-02-09T04:15:51.866Z,97813.28
2023-02-09T04:18:18.897Z,97817.28
2023-02-09T04:20:45.863Z,97773.06
2023-02-09T04:23:12.919Z,97788.41
2023-02-09T04:25:39.730Z,97773.41
2023-02-09T04:28:07.284Z,97824.84
2023-02-09T04:30:33.975Z,97763.50
2023-02-09T04:33:00.643Z,97778.50
2023-02-09T04:35:27.254Z,97779.81
2023-02-09T04:37:53.884Z,97820.88
2023-02-09T04:40:20.597Z,97790.69
2023-02-09T04:42:48.045Z,97816.13
2023-02-09T04:45:14.793Z,97778.06
2023-02-09T04:47:41.370Z,97820.56
2023-02-09T04:50:08.323Z,97835.63
2023-02-09T04:52:34.936Z,97808.91
2023-02-09T04:55:01.623Z,97824.91
2023-02-09T04:57:46.876Z,97807.16
2023-02-09T05:00:14.123Z,97810.03
2023-02-09T05:02:40.738Z,97827.63
2023-02-09T05:05:07.725Z,97825.06
2023-02-09T05:07:34.399Z,97793.72
2023-02-09T05:10:01.032Z,97827.94
2023-02-09T05:12:27.719Z,97773.94
2023-02-09T05:14:54.283Z,97801.69
2023-02-09T05:17:21.226Z,97776.78
2023-02-09T05:19:48.513Z,97804.44
2023-02-09T05:22:15.619Z,97776.00
2023-02-09T05:24:42.210Z,97828.25
2023-02-09T05:27:08.877Z,97788.59
2023-02-09T05:29:35.667Z,97826.63
2023-02-09T05:32:02.407Z,97793.69
2023-02-09T05:34:29.047Z,97813.28
2023-02-09T05:36:55.646Z,97801.63
2023-02-09T05:39:22.881Z,97839.72
2023-02-09T05:42:08.035Z,97809.00
2023-02-09T05:44:34.726Z,97813.66
2023-02-09T05:47:01.339Z,97793.84
2023-02-09T05:49:27.935Z,97760.44
2023-02-09T05:51:54.527Z,97778.50
2023-02-09T05:54:21.235Z,97816.53
2023-02-09T05:56:48.077Z,97795.53
2023-02-09T05:59:14.711Z,97840.78
2023-02-09T06:01:41.385Z,97833.31
2023-02-09T06:04:09.224Z,97817.63
2023-02-09T06:06:36.329Z,97836.50
2023-02-09T06:09:03.703Z,97832.72
2023-02-09T06:11:30.343Z,97806.97
2023-02-09T06:13:56.974Z,97810.03
2023-02-09T06:16:23.850Z,97792.78
2023-02-09T06:18:50.490Z,97810.50
2023-02-09T06:21:17.357Z,97832.06
2023-02-09T06:23:44.030Z,97813.44
2023-02-09T06:26:13.165Z,97837.75
2023-02-09T06:28:40.209Z,97827.66
2023-02-09T06:31:07.534Z,97843.28
2023-02-09T06:33:35.474Z,97836.69
2023-02-09T06:36:03.253Z,97810.00
2023-02-09T06:38:34.479Z,97832.56
2023-02-09T06:41:01.161Z,97818.50
2023-02-09T06:43:28.096Z,97845.09
2023-02-09T06:45:54.793Z,97842.53
2023-02-09T06:48:21.548Z,97829.25
2023-02-09T06:50:48.403Z,97827.31
2023-02-09T06:53:16.177Z,97805.56
2023-02-09T06:55:42.834Z,97844.28
2023-02-09T06:58:09.676Z,97808.34
2023-02-09T07:00:36.360Z,97792.97
2023-02-09T07:03:03.374Z,97837.13
2023-02-09T07:05:31.531Z,97837.50
2023-02-09T07:07:58.261Z,97806.06
2023-02-09T07:10:25.212Z,97795.53
2023-02-09T07:12:51.897Z,97766.16
2023-02-09T07:15:18.722Z,97783.28
2023-02-09T07:17:45.409Z,97814.34
2023-02-09T07:20:12.571Z,97787.81
2023-02-09T07:22:39.378Z,97819.59
2023-02-09T07:25:06.587Z,97823.28
2023-02-09T07:27:33.458Z,97810.97
2023-02-09T07:30:01.155Z,97830.47
2023-02-09T07:32:28.406Z,97827.78
2023-02-09T07:34:55.042Z,97741.25
2023-02-09T07:37:21.697Z,97836.22
2023-02-09T07:39:48.604Z,97805.50
2023-02-09T07:42:15.517Z,97812.06
2023-02-09T07:44:51.568Z,97841.66
2023-02-09T07:47:18.230Z,97829.22
2023-02-09T07:49:44.862Z,97826.03
2023-02-09T07:52:11.680Z,97850.66
2023-02-09T07:54:38.294Z,97863.25
2023-02-09T07:57:07.469Z,97855.09
2023-02-09T07:59:34.111Z,97737.00
2023-02-09T08:02:01.142Z,97860.69
2023-02-09T08:04:27.820Z,97841.63
2023-02-09T08:06:55.320Z,97816.09
2023-02-09T08:09:21.922Z,97862.97
2023-02-09T08:11:53.653Z,97857.88
2023-02-09T08:14:30.774Z,97864.28
2023-02-09T08:17:27.943Z,97858.50
2023-02-09T08:20:00.730Z,97859.75
2023-02-09T08:22:31.827Z,97827.19
2023-02-09T08:25:01.703Z,97838.91
2023-02-09T08:27:28.957Z,97864.41
2023-02-09T08:29:55.852Z,97820.94
2023-02-09T08:32:22.846Z,97835.50
2023-02-09T08:34:49.524Z,97851.81
2023-02-09T08:37:16.166Z,97837.19
2023-02-09T08:39:44.671Z,97860.00
2023-02-09T08:42:11.374Z,97864.63
2023-02-09T08:44:37.998Z,97842.72
2023-02-09T08:47:04.842Z,97854.72
2023-02-09T08:49:31.569Z,97840.16
2023-02-09T08:51:58.208Z,97857.53
2023-02-09T08:54:25.474Z,97830.84
2023-02-09T08:56:52.160Z,97856.03
2023-02-09T08:59:20.150Z,97859.72
2023-02-09T09:01:46.840Z,97840.75
2023-02-09T09:04:13.587Z,97868.13
2023-02-09T09:06:40.166Z,97817.63
2023-02-09T09:09:06.824Z,97792.28
2023-02-09T09:11:33.658Z,97871.16
2023-02-09T09:14:00.267Z,97826.09
2023-02-09T09:16:26.982Z,97815.94
2023-02-09T09:18:53.599Z,97823.41
2023-02-09T09:21:20.289Z,97834.94
2023-02-09T09:23:48.078Z,97850.09
2023-02-09T09:26:15.881Z,97852.47
2023-02-09T09:28:43.184Z,97844.78
2023-02-09T09:31:12.762Z,97822.78
2023-02-09T09:33:39.521Z,97862.19
2023-02-09T09:36:07.187Z,97844.00
2023-02-09T09:38:38.034Z,97852.50
2023-02-09T09:41:17.311Z,97841.88
2023-02-09T09:43:44.097Z,97808.34
2023-02-09T09:46:16.656Z,97831.97
2023-02-09T09:48:47.119Z,97808.69
2023-02-09T09:51:21.137Z,97839.16
2023-02-09T09:53:53.124Z,97826.28
2023-02-09T09:56:21.380Z,97863.13
2023-02-09T09:58:49.852Z,97854.50
2023-02-09T10:01:20.350Z,97839.06
2023-02-09T10:03:47.382Z,97848.84
2023-02-09T10:06:17.500Z,97847.41
2023-02-09T10:08:51.711Z,97871.13
2023-02-09T10:11:23.854Z,97866.91
2023-02-09T10:13:55.561Z,97865.16
2023-02-09T10:16:25.512Z,97868.38
2023-02-09T10:18:59.928Z,97857.25
2023-02-09T10:21:30.439Z,97850.06
2023-02-09T10:24:00.136Z,97842.53
2023-02-09T10:26:30.977Z,97801.59
2023-02-09T10:29:07.115Z,97847.06
2023-02-09T10:31:38.744Z,97833.16
2023-02-09T10:34:08.518Z,97841.72
2023-02-09T10:37:10.598Z,97828.53
2023-02-09T10:39:37.319Z,97839.63
2023-02-09T10:42:19.194Z,97832.34
2023-02-09T10:44:50.414Z,97827.22
2023-02-09T10:47:20.008Z,97825.31
2023-02-09T10:50:13.577Z,97834.16
2023-02-09T10:53:14.342Z,97823.63
2023-02-09T10:55:43.030Z,97831.56
2023-02-09T10:58:09.579Z,97828.28
2023-02-09T11:00:42.201Z,97814.34
2023-02-09T11:03:27.566Z,97813.56
2023-02-09T11:05:58.814Z,97802.16
2023-02-09T11:08:42.809Z,97802.34
2023-02-09T11:11:22.639Z,97777.00
2023-02-09T11:13:49.330Z,97807.03
2023-02-09T11:16:15.882Z,97809.13
2023-02-09T11:18:47.129Z,97793.91
2023-02-09T11:21:40.211Z,97816.16
2023-02-09T11:24:26.502Z,97815.16
2023-02-09T11:27:17.916Z,97813.72
2023-02-09T11:30:15.294Z,97802.28
2023-02-09T11:33:02.789Z,97805.78
2023-02-09T11:35:46.149Z,97789.47
2023-02-09T11:38:17.482Z,97805.03
2023-02-09T11:40:50.306Z,97766.25
2023-02-09T11:43:32.287Z,97795.19
2023-02-09T11:46:05.673Z,97795.78
2023-02-09T11:48:38.095Z,97803.00
2023-02-09T11:51:11.803Z,97802.44
2023-02-09T11:53:55.515Z,97804.38
2023-02-09T11:56:27.943Z,97801.06
2023-02-09T11:58:57.507Z,97792.34
2023-02-09T12:01:50.814Z,97786.41
2023-02-09T12:04:41.789Z,97789.97
2023-02-09T12:07:40.375Z,97784.69
2023-02-09T12:10:09.939Z,97789.53
2023-02-09T12:13:20.765Z,97784.25
2023-02-09T12:15:58.954Z,97735.25
2023-02-09T12:18:32.940Z,97788.06
2023-02-09T12:21:05.304Z,97790.09
2023-02-09T12:23:41.884Z,97786.13
2023-02-09T12:26:11.517Z,97782.84
2023-02-09T12:28:41.149Z,97785.94
2023-02-09T12:31:15.885Z,97772.34
2023-02-09T12:33:45.465Z,97754.25
2023-02-09T12:36:16.100Z,97775.78
2023-02-09T12:38:51.584Z,97783.00
2023-02-09T12:41:32.093Z,97778.56
2023-02-09T12:44:25.088Z,97775.78
2023-02-09T12:46:55.575Z,97766.03
2023-02-09T12:49:27.989Z,97763.94
2023-02-09T12:52:00.763Z,97763.94
2023-02-09T12:54:42.474Z,97762.81
2023-02-09T12:57:15.357Z,97762.56
2023-02-09T12:59:51.360Z,97754.72
2023-02-09T13:02:29.792Z,97735.97
2023-02-09T13:05:14.758Z,97754.47
2023-02-09T13:08:04.048Z,97763.47
2023-02-09T13:10:41.164Z,97753.31
2023-02-09T13:13:10.797Z,97760.56
2023-02-09T13:15:56.202Z,97764.09
2023-02-09T13:18:59.961Z,97763.53
2023-02-09T13:21:27.215Z,97758.47
2023-02-09T13:23:57.006Z,97751.69
2023-02-09T13:26:26.742Z,97749.72
2023-02-09T13:29:21.724Z,97745.63
2023-02-09T13:32:03.536Z,97715.78
2023-02-09T13:34:48.541Z,97730.09
2023-02-09T13:37:33.506Z,97733.84
2023-02-09T13:40:03.293Z,97732.75
2023-02-09T13:42:35.036Z,97689.97
2023-02-09T13:45:02.002Z,97705.13
2023-02-09T13:47:28.989Z,97710.75
2023-02-09T13:50:13.685Z,97741.41
2023-02-09T13:52:40.677Z,97714.78
2023-02-09T13:55:19.939Z,97744.06
2023-02-09T13:57:56.108Z,97744.63
2023-02-09T14:00:25.652Z,97750.91
2023-02-09T14:02:57.111Z,97748.97
2023-02-09T14:05:37.392Z,97702.94
2023-02-09T14:08:04.374Z,97739.44
2023-02-09T14:10:33.716Z,97706.25
2023-02-09T14:13:15.486Z,97759.16
2023-02-09T14:16:06.268Z,97736.19
2023-02-09T14:18:51.121Z,97751.47
2023-02-09T14:21:21.540Z,97754.78
2023-02-09T14:24:03.064Z,97754.88
2023-02-09T14:26:42.524Z,97734.66
2023-02-09T14:29:30.571Z,97731.97
2023-02-09T14:32:06.914Z,97765.38
2023-02-09T14:34:35.784Z,97771.59
2023-02-09T14:37:13.365Z,97770.75
2023-02-09T14:39:54.872Z,97776.66
2023-02-09T14:42:22.155Z,97742.69
2023-02-09T14:44:57.687Z,97768.53
2023-02-09T14:47:40.360Z,97779.84
2023-02-09T14:50:15.017Z,97779.00
2023-02-09T14:52:46.793Z,97766.69
2023-02-09T14:55:40.591Z,97677.66
2023-02-09T14:58:12.259Z,97760.94
2023-02-09T15:00:38.861Z,97748.56
2023-02-09T15:03:05.599Z,97735.41
2023-02-09T15:05:32.396Z,97747.94
2023-02-09T15:08:03.596Z,97763.41
2023-02-09T15:10:35.229Z,97739.19
2023-02-09T15:13:03.077Z,97745.53
2023-02-09T15:15:29.781Z,97765.41
2023-02-09T15:17:58.593Z,97716.47
2023-02-09T15:20:25.762Z,97743.50
2023-02-09T15:22:53.861Z,97763.25
2023-02-09T15:25:21.257Z,97754.41
2023-02-09T15:27:52.844Z,97755.75
2023-02-09T15:30:26.376Z,97790.59
2023-02-09T15:32:53.646Z,97789.97
2023-02-09T15:35:23.614Z,97775.28
2023-02-09T15:37:56.638Z,97748.13
2023-02-09T15:40:45.716Z,97797.06
2023-02-09T15:43:36.358Z,97791.16
2023-02-09T15:46:21.556Z,97777.13
2023-02-09T15:48:48.166Z,97753.72
2023-02-09T15:51:15.498Z,97789.00
2023-02-09T15:53:42.994Z,97753.16
2023-02-09T15:56:11.593Z,97782.25
2023-02-09T15:58:44.946Z,97775.72
2023-02-09T16:01:16.723Z,97788.34
2023-02-09T16:03:44.201Z,97793.78
2023-02-09T16:06:13.128Z,97783.59
2023-02-09T16:08:39.904Z,97770.56
2023-02-09T16:11:17.145Z,97749.81
2023-02-09T16:13:43.824Z,97777.06
2023-02-09T16:16:16.997Z,97780.34
2023-02-09T16:18:45.286Z,97741.81
2023-02-09T16:21:24.065Z,97769.53
2023-02-09T16:23:53.845Z,97763.25
2023-02-09T16:26:21.027Z,97720.97
2023-02-09T16:28:47.676Z,97757.06
2023-02-09T16:31:14.340Z,97771.34
2023-02-09T16:33:43.155Z,97749.16
2023-02-09T16:36:16.840Z,97779.94
2023-02-09T16:38:43.669Z,97739.97
2023-02-09T16:41:34.364Z,97771.69
2023-02-09T16:44:04.726Z,97789.34
2023-02-09T16:46:31.886Z,97800.31
2023-02-09T16:49:00.894Z,97744.28
2023-02-09T16:51:27.627Z,97739.06
2023-02-09T16:53:54.903Z,97780.38
2023-02-09T16:56:21.633Z,97817.13
2023-02-09T16:58:48.729Z,97790.94
2023-02-09T17:01:21.703Z,97781.31
2023-02-09T17:03:50.998Z,97802.97
2023-02-09T17:06:20.665Z,97796.66
2023-02-09T17:08:48.278Z,97754.94
2023-02-09T17:11:21.357Z,97799.66
2023-02-09T17:13:47.990Z,97769.31
2023-02-09T17:16:22.224Z,97785.88
2023-02-09T17:18:55.148Z,97801.84
2023-02-09T17:21:24.813Z,97793.88
2023-02-09T17:23:52.353Z,97779.16
2023-02-09T17:26:19.238Z,97783.31
2023-02-09T17:28:45.838Z,97762.72
2023-02-09T17:31:26.414Z,97798.47
2023-02-09T17:33:56.704Z,97788.13
2023-02-09T17:36:27.381Z,97785.38
2023-02-09T17:38:57.134Z,97761.25
2023-02-09T17:41:23.654Z,97792.72
2023-02-09T17:43:52.656Z,97775.47
2023-02-09T17:46:20.164Z,97798.38
2023-02-09T17:48:47.915Z,97800.97
2023-02-09T17:51:20.743Z,97802.94
2023-02-09T17:53:48.860Z,97794.00
2023-02-09T17:56:16.825Z,97693.09
2023-02-09T17:58:44.562Z,97793.00
2023-02-09T18:01:22.119Z,97811.69
2023-02-09T18:03:49.896Z,97784.47
2023-02-09T18:06:20.910Z,97818.91
2023-02-09T18:08:47.497Z,97797.03
2023-02-09T18:11:16.031Z,97822.25
2023-02-09T18:13:42.640Z,97795.41
2023-02-09T18:16:09.745Z,97819.66
2023-02-09T18:18:36.381Z,97820.88
2023-02-09T18:21:03.079Z,97808.13
2023-02-09T18:23:29.756Z,97815.50
2023-02-09T18:25:56.379Z,97826.44
2023-02-09T18:28:23.170Z,97822.25
2023-02-09T18:30:50.051Z,97797.38
2023-02-09T18:33:16.799Z,97813.28
2023-02-09T18:35:46.993Z,97831.75
2023-02-09T18:38:14.822Z,97861.94
2023-02-09T18:40:41.676Z,97863.44
2023-02-09T18:43:08.632Z,97859.09
2023-02-09T18:45:35.371Z,97858.91
2023-02-09T18:48:02.180Z,97827.91
2023-02-09T18:50:31.121Z,97853.72
2023-02-09T18:53:02.842Z,97852.88
2023-02-09T18:55:31.937Z,97861.06
2023-02-09T18:58:00.327Z,97857.03
2023-02-09T19:00:27.420Z,97863.41
2023-02-09T19:02:57.841Z,97832.16
2023-02-09T19:05:32.837Z,97870.94
2023-02-09T19:07:59.753Z,97806.72
2023-02-09T19:10:27.366Z,97830.44
2023-02-09T19:12:54.354Z,97804.59
2023-02-09T19:15:22.563Z,97861.19
2023-02-09T19:17:49.242Z,97814.91
2023-02-09T19:20:21.912Z,97830.25
2023-02-09T19:22:51.517Z,97856.78
2023-02-09T19:25:19.459Z,97840.63
2023-02-09T19:27:46.197Z,97815.63
2023-02-09T19:30:16.108Z,97844.00
2023-02-09T19:32:43.000Z,97851.91
2023-02-09T19:35:09.735Z,97819.72
2023-02-09T19:37:37.439Z,97827.81
2023-02-09T19:40:05.173Z,97827.44
2023-02-09T19:42:32.657Z,97849.75
2023-02-09T19:44:59.614Z,97854.50
2023-02-09T19:47:27.351Z,97861.34
2023-02-09T19:49:58.341Z,97857.09
2023-02-09T19:52:28.099Z,97862.81
2023-02-09T19:54:57.294Z,97840.72
2023-02-09T19:57:24.345Z,97816.22
2023-02-09T19:59:53.468Z,97818.69
2023-02-09T20:02:20.111Z,97787.19
2023-02-09T20:04:46.753Z,97833.56
2023-02-09T20:07:14.367Z,97852.56
2023-02-09T20:09:41.606Z,97842.00
2023-02-09T20:12:08.256Z,97820.44
2023-02-09T20:14:35.093Z,97827.94
2023-02-09T20:17:01.732Z,97832.34
2023-02-09T20:19:28.427Z,97859.41
2023-02-09T20:21:55.061Z,97827.41
2023-02-09T20:24:22.494Z,97862.19
2023-02-09T20:26:49.218Z,97843.72
2023-02-09T20:29:16.798Z,97854.66
2023-02-09T20:31:43.630Z,97842.97
2023-02-09T20:34:13.698Z,97864.41
2023-02-09T20:36:41.786Z,97846.63
2023-02-09T20:39:13.228Z,97837.56
2023-02-09T20:41:59.887Z,97849.97
2023-02-09T20:44:45.129Z,97867.75
2023-02-09T20:47:11.747Z,97814.91
2023-02-09T20:49:40.650Z,97806.91
2023-02-09T20:52:08.889Z,97871.91
2023-02-09T20:54:36.336Z,97868.69
2023-02-09T20:57:03.930Z,97875.03
2023-02-09T20:59:31.108Z,97850.06
2023-02-09T21:01:58.530Z,97871.03
2023-02-09T21:04:30.103Z,97873.84
2023-02-09T21:06:58.697Z,97871.41
2023-02-09T21:09:26.588Z,97841.19
2023-02-09T21:11:56.009Z,97870.81
2023-02-09T21:14:27.925Z,97863.72
2023-02-09T21:17:05.941Z,97884.66
2023-02-09T21:19:34.669Z,97897.22
2023-02-09T21:22:01.611Z,97845.28
2023-02-09T21:24:28.253Z,97867.34
2023-02-09T21:26:54.905Z,97882.50
2023-02-09T21:29:21.614Z,97876.56
2023-02-09T21:31:48.328Z,97851.03
2023-02-09T21:34:16.156Z,97848.84
2023-02-09T21:36:43.545Z,97899.38
2023-02-09T21:39:10.192Z,97864.38
2023-02-09T21:41:55.617Z,97863.91
2023-02-09T21:44:22.326Z,97899.66
2023-02-09T21:46:50.022Z,97897.94
2023-02-09T21:49:16.835Z,97888.13
2023-02-09T21:51:43.485Z,97896.63
2023-02-09T21:54:17.578Z,97898.03
2023-02-09T21:56:45.149Z,97896.44
2023-02-09T21:59:12.012Z,97861.53
2023-02-09T22:01:39.491Z,97907.47
2023-02-09T22:04:06.388Z,97894.06
2023-02-09T22:06:33.077Z,97913.84
2023-02-09T22:09:02.775Z,97903.00
2023-02-09T22:11:29.941Z,97867.38
2023-02-09T22:13:56.567Z,97884.84
2023-02-09T22:16:24.369Z,97907.78
2023-02-09T22:18:51.413Z,97920.06
2023-02-09T22:21:18.588Z,97925.84
2023-02-09T22:23:45.637Z,97890.78
2023-02-09T22:26:13.894Z,97922.31
2023-02-09T22:28:41.694Z,97925.50
2023-02-09T22:31:15.918Z,97899.22
2023-02-09T22:33:42.770Z,97922.44
2023-02-09T22:36:12.837Z,97933.53
2023-02-09T22:38:39.642Z,97896.13
2023-02-09T22:41:08.031Z,97910.50
2023-02-09T22:43:34.999Z,97943.59
2023-02-09T22:46:01.697Z,97906.41
2023-02-09T22:48:28.440Z,97908.78
2023-02-09T22:50:55.197Z,97925.31
2023-02-09T22:53:21.803Z,97906.84
2023-02-09T22:55:49.437Z,97951.81
2023-02-09T22:58:16.268Z,97903.84
2023-02-09T23:00:43.031Z,97885.78
2023-02-09T23:03:09.767Z,97897.75
2023-02-09T23:05:36.441Z,97919.22
2023-02-09T23:08:03.104Z,97910.34
2023-02-09T23:10:30.642Z,97907.81
2023-02-09T23:12:57.270Z,97949.94
2023-02-09T23:15:23.934Z,97933.78
2023-02-09T23:17:50.727Z,97976.09
2023-02-09T23:20:17.761Z,97978.66
2023-02-09T23:22:44.594Z,97947.56
2023-02-09T23:25:11.194Z,97980.47
2023-02-09T23:27:37.768Z,97949.78
2023-02-09T23:30:04.755Z,97955.16
2023-02-09T23:32:31.321Z,97953.50
2023-02-09T23:37:37.511Z,97948.16
2023-02-09T23:40:04.850Z,97940.84
2023-02-09T23:42:31.519Z,97925.81
2023-02-09T23:44:58.304Z,97984.03
2023-02-09T23:47:24.953Z,97922.94
2023-02-09T23:49:51.512Z,97979.97
2023-02-09T23:52:18.243Z,97954.16
2023-02-09T23:54:44.799Z,97948.72
2023-02-09T23:57:11.472Z,97940.59
2023-02-09T23:59:38.731Z,97958.72
